KENW/ENW METAR and TAF weather

Enter ICAO airport designator
Station Type Date Time Source
KENW METAR 2019/10/18 11:53 UTC NOAA

KENW 181153Z 00000KT 5SM BR CLR 00/00 A3007


Station Type Date Time Source
KENW Decoded METAR 2019/10/18 11:53 UTC NOAA

KENOSHA REGIONAL AIRPORT, WI, United States (KENW) 42-36N 087-56W 219M
Oct 18, 2019 - 07:53 AM EDT / 2019.10.18 1153 UTC
Wind: Calm:0
Visibility: 5 mile(s):0
Sky conditions: clear
Weather: mist
Temperature: 32 F (0 C)
Dew Point: 32 F (0 C)
Relative Humidity: 100%
Pressure (altimeter): 30.07 in. Hg (1018 hPa)
ob: KENW 181153Z 00000KT 5SM BR CLR 00/00 A3007
cycle: 12

Station Type Date Time Source
KENW TAF 2019/10/18 12:22 UTC NOAA

TAF KENW 181120Z 1812/1912 VRB03KT P6SM BKN200
FM181500 17008G15KT P6SM BKN250
FM181900 15012G20KT P6SM SCT250
FM190400 17008KT P6SM FEW250

Example: see airport list